createdAt,value
2018-07-04T00:00:11.833Z,59.70
2018-07-04T00:02:45.271Z,58.70
2018-07-04T00:05:18.378Z,58.70
2018-07-04T00:07:51.514Z,58.90
2018-07-04T00:10:25.838Z,58.80
2018-07-04T00:12:59.337Z,58.60
2018-07-04T00:15:33.020Z,58.90
2018-07-04T00:18:06.806Z,59.30
2018-07-04T00:20:40.634Z,59.30
2018-07-04T00:23:13.942Z,59.50
2018-07-04T00:25:47.098Z,60.30
2018-07-04T00:28:20.266Z,60.30
2018-07-04T00:30:59.542Z,59.50
2018-07-04T00:33:33.089Z,59.00
2018-07-04T00:36:07.068Z,59.80
2018-07-04T00:38:40.667Z,60.10
2018-07-04T00:41:13.877Z,59.60
2018-07-04T00:46:25.762Z,60.00
2018-07-04T00:48:59.359Z,60.30
2018-07-04T00:51:33.652Z,60.10
2018-07-04T00:54:07.761Z,60.20
2018-07-04T00:56:41.097Z,60.90
2018-07-04T00:59:14.542Z,61.40
2018-07-04T01:01:47.914Z,61.50
2018-07-04T01:04:21.230Z,61.60
2018-07-04T01:06:56.109Z,61.90
2018-07-04T01:09:30.084Z,61.90
2018-07-04T01:12:03.821Z,61.40
2018-07-04T01:14:38.680Z,61.80
2018-07-04T01:17:12.157Z,61.70
2018-07-04T01:19:45.489Z,62.30
2018-07-04T01:22:18.674Z,62.40
2018-07-04T01:24:52.448Z,62.80
2018-07-04T01:27:26.062Z,62.60
2018-07-04T01:30:00.264Z,63.10
2018-07-04T01:32:34.841Z,63.60
2018-07-04T01:35:08.537Z,64.90
2018-07-04T01:37:42.437Z,64.00
2018-07-04T01:40:15.781Z,64.40
2018-07-04T01:42:49.148Z,64.10
2018-07-04T01:45:22.502Z,64.50
2018-07-04T01:47:56.702Z,66.00
2018-07-04T01:50:30.347Z,65.00
2018-07-04T01:55:33.388Z,64.80
2018-07-04T01:58:06.856Z,64.80
2018-07-04T02:00:40.297Z,65.70
2018-07-04T02:03:13.521Z,66.10
2018-07-04T02:05:46.719Z,65.90
2018-07-04T02:08:19.927Z,65.70
2018-07-04T02:10:53.157Z,65.80
2018-07-04T02:13:26.708Z,66.00
2018-07-04T02:16:00.553Z,66.10
2018-07-04T02:18:34.049Z,66.00
2018-07-04T02:21:07.832Z,65.90
2018-07-04T02:23:41.246Z,65.90
2018-07-04T02:26:14.590Z,66.10
2018-07-04T02:28:47.767Z,66.00
2018-07-04T02:31:21.134Z,66.10
2018-07-04T02:33:54.460Z,65.80
2018-07-04T02:36:28.538Z,66.30
2018-07-04T02:39:02.483Z,66.40
2018-07-04T02:41:36.211Z,66.40
2018-07-04T02:44:09.571Z,66.20
2018-07-04T02:46:42.796Z,66.20
2018-07-04T02:49:24.399Z,66.70
2018-07-04T02:51:58.745Z,66.70
2018-07-04T02:54:32.387Z,67.60
2018-07-04T02:57:06.315Z,67.80
2018-07-04T02:59:40.129Z,67.50
2018-07-04T03:04:41.494Z,68.10
2018-07-04T03:07:14.866Z,67.90
2018-07-04T03:09:55.967Z,68.00
2018-07-04T03:12:29.760Z,68.20
2018-07-04T03:15:03.668Z,68.10
2018-07-04T03:17:37.259Z,68.40
2018-07-04T03:20:10.578Z,68.20
2018-07-04T03:22:43.907Z,68.30
2018-07-04T03:25:17.282Z,68.70
2018-07-04T03:27:50.448Z,69.20
2018-07-04T03:30:23.765Z,69.10
2018-07-04T03:33:02.481Z,69.00
2018-07-04T03:35:35.909Z,69.40
2018-07-04T03:38:09.367Z,69.30
2018-07-04T03:40:42.638Z,69.60
2018-07-04T03:43:16.424Z,69.60
2018-07-04T03:45:49.771Z,70.00
2018-07-04T03:48:22.967Z,70.10
2018-07-04T03:50:58.428Z,70.00
2018-07-04T03:53:33.051Z,70.00
2018-07-04T03:56:06.960Z,69.90
2018-07-04T03:58:40.103Z,70.10
2018-07-04T04:01:13.424Z,70.40
2018-07-04T04:03:46.745Z,70.30
2018-07-04T04:06:19.926Z,69.90
2018-07-04T04:08:53.190Z,71.00
2018-07-04T04:11:27.564Z,71.00
2018-07-04T04:14:01.070Z,71.30
2018-07-04T04:16:34.941Z,70.70
2018-07-04T04:19:08.455Z,71.20
2018-07-04T04:21:43.190Z,71.10
2018-07-04T04:24:16.514Z,70.80
2018-07-04T04:26:49.782Z,70.70
2018-07-04T04:31:51.179Z,72.50
2018-07-04T04:34:25.183Z,70.80
2018-07-04T04:39:27.242Z,69.20
2018-07-04T04:42:00.813Z,69.20
2018-07-04T04:44:34.004Z,69.00
2018-07-04T04:47:07.166Z,69.30
2018-07-04T04:49:42.047Z,68.90
2018-07-04T04:52:16.326Z,68.60
2018-07-04T04:54:49.874Z,68.60
2018-07-04T04:57:23.662Z,68.30
2018-07-04T04:59:57.701Z,68.90
2018-07-04T05:02:31.104Z,69.30
2018-07-04T05:05:06.782Z,69.30
2018-07-04T05:07:40.555Z,68.60
2018-07-04T05:10:15.036Z,68.70
2018-07-04T05:12:49.929Z,67.70
2018-07-04T05:15:23.454Z,66.80
2018-07-04T05:17:57.594Z,67.60
2018-07-04T05:20:31.080Z,66.20
2018-07-04T05:23:04.491Z,66.60
2018-07-04T05:25:37.889Z,65.00
2018-07-04T05:28:11.203Z,65.20
2018-07-04T05:30:45.336Z,65.60
2018-07-04T05:33:19.586Z,66.30
2018-07-04T05:35:53.225Z,65.40
2018-07-04T05:38:26.821Z,65.40
2018-07-04T05:41:00.203Z,65.60
2018-07-04T05:43:33.425Z,65.20
2018-07-04T05:46:06.582Z,65.20
2018-07-04T05:48:43.322Z,67.00
2018-07-04T05:51:18.761Z,65.80
2018-07-04T05:53:54.326Z,66.70
2018-07-04T05:56:28.034Z,66.40
2018-07-04T05:59:01.220Z,65.40
2018-07-04T06:01:34.412Z,64.00
2018-07-04T06:04:11.242Z,63.20
2018-07-04T06:06:44.866Z,61.60
2018-07-04T06:09:22.089Z,60.60
2018-07-04T06:11:55.645Z,59.40
2018-07-04T06:14:28.910Z,58.00
2018-07-04T06:17:02.337Z,57.90
2018-07-04T06:19:42.245Z,57.60
2018-07-04T06:24:43.721Z,57.30
2018-07-04T06:27:17.989Z,56.70
2018-07-04T06:29:52.832Z,56.70
2018-07-04T06:32:26.189Z,56.80
2018-07-04T06:34:59.420Z,55.70
2018-07-04T06:37:33.365Z,55.40
2018-07-04T06:40:00.411Z,56.10
2018-07-04T06:42:27.472Z,55.50
2018-07-04T06:44:54.769Z,55.20
2018-07-04T06:47:22.129Z,55.60
2018-07-04T06:49:49.677Z,55.00
2018-07-04T06:52:17.990Z,54.00
2018-07-04T06:54:48.707Z,55.00
2018-07-04T06:57:17.383Z,53.40
2018-07-04T06:59:46.295Z,52.40
2018-07-04T07:02:15.532Z,51.70
2018-07-04T07:04:50.490Z,51.90
2018-07-04T07:07:27.846Z,50.10
2018-07-04T07:10:01.561Z,50.60
2018-07-04T07:12:38.811Z,48.80
2018-07-04T07:15:12.677Z,48.30
2018-07-04T07:17:50.359Z,47.00
2018-07-04T07:20:24.622Z,46.70
2018-07-04T07:22:58.093Z,46.70
2018-07-04T07:25:31.758Z,45.40
2018-07-04T07:28:04.950Z,45.20
2018-07-04T07:30:38.137Z,45.30
2018-07-04T07:33:11.308Z,45.10
2018-07-04T07:35:44.977Z,45.30
2018-07-04T07:38:19.263Z,44.80
2018-07-04T07:40:53.380Z,44.00
2018-07-04T07:43:27.206Z,43.80
2018-07-04T07:48:28.334Z,43.30
2018-07-04T07:51:01.594Z,44.30
2018-07-04T07:53:36.667Z,43.40
2018-07-04T07:56:09.856Z,43.50
2018-07-04T07:58:44.105Z,42.90
2018-07-04T08:01:18.252Z,42.70
2018-07-04T08:03:53.859Z,43.10
2018-07-04T08:06:27.626Z,42.30
2018-07-04T08:09:01.009Z,42.70
2018-07-04T08:11:34.314Z,41.30
2018-07-04T08:14:07.905Z,41.20
2018-07-04T08:16:41.286Z,40.60
2018-07-04T08:19:15.277Z,40.40
2018-07-04T08:21:49.072Z,39.60
2018-07-04T08:24:22.585Z,40.00
2018-07-04T08:29:24.920Z,39.30
2018-07-04T08:31:58.531Z,38.70
2018-07-04T08:34:31.930Z,37.10
2018-07-04T08:37:05.271Z,37.40
2018-07-04T08:39:38.637Z,36.60
2018-07-04T08:42:12.678Z,35.90
2018-07-04T08:44:48.363Z,35.10
2018-07-04T08:47:22.257Z,34.60
2018-07-04T08:52:25.087Z,34.50
2018-07-04T08:54:58.917Z,33.50
2018-07-04T08:57:32.160Z,33.30
2018-07-04T09:00:05.419Z,33.30
2018-07-04T09:02:38.563Z,33.60
2018-07-04T09:05:11.836Z,33.30
2018-07-04T09:07:46.731Z,31.80
2018-07-04T09:10:20.991Z,32.10
2018-07-04T09:12:54.576Z,31.90
2018-07-04T09:15:28.958Z,31.40
2018-07-04T09:18:02.130Z,31.80
2018-07-04T09:20:35.303Z,30.40
2018-07-04T09:23:08.499Z,30.70
2018-07-04T09:25:42.250Z,31.20
2018-07-04T09:28:16.651Z,30.50
2018-07-04T09:30:50.413Z,29.50
2018-07-04T09:33:25.664Z,30.30
2018-07-04T09:35:58.993Z,29.90
2018-07-04T09:38:32.412Z,29.50
2018-07-04T09:41:05.868Z,28.70
2018-07-04T09:43:39.159Z,29.40
2018-07-04T09:46:18.264Z,29.30
2018-07-04T09:48:51.969Z,29.40
2018-07-04T09:51:25.763Z,29.50
2018-07-04T09:53:59.275Z,29.50
2018-07-04T09:56:32.688Z,29.70
2018-07-04T09:59:06.156Z,29.50
2018-07-04T10:04:07.265Z,30.10
2018-07-04T10:06:45.599Z,29.70
2018-07-04T10:09:19.322Z,30.20
2018-07-04T10:11:52.886Z,29.80
2018-07-04T10:14:26.227Z,29.70
2018-07-04T10:16:59.945Z,29.90
2018-07-04T10:19:42.688Z,31.00
2018-07-04T10:22:17.391Z,31.00
2018-07-04T10:24:53.154Z,33.20
2018-07-04T10:29:54.519Z,32.90
2018-07-04T10:32:27.853Z,33.80
2018-07-04T10:35:01.224Z,33.90
2018-07-04T10:37:34.514Z,33.60
2018-07-04T10:40:09.764Z,34.20
2018-07-04T10:42:43.221Z,34.70
2018-07-04T10:45:18.031Z,34.30
2018-07-04T10:47:51.485Z,35.00
2018-07-04T10:50:24.673Z,34.90
2018-07-04T10:52:57.862Z,34.80
2018-07-04T10:55:36.403Z,35.20
2018-07-04T10:58:09.602Z,33.90
2018-07-04T11:00:43.170Z,34.00
2018-07-04T11:03:17.010Z,32.30
2018-07-04T11:05:50.566Z,32.90
2018-07-04T11:08:23.839Z,33.40
2018-07-04T11:10:57.345Z,33.30
2018-07-04T11:13:30.575Z,32.60
2018-07-04T11:16:03.881Z,32.40
2018-07-04T11:18:37.193Z,32.70
2018-07-04T11:21:10.302Z,32.60
2018-07-04T11:23:43.690Z,33.60
2018-07-04T11:26:17.414Z,31.20
2018-07-04T11:28:54.146Z,31.50
2018-07-04T11:31:28.433Z,29.60
2018-07-04T11:36:53.184Z,28.90
2018-07-04T11:42:55.416Z,28.50
2018-07-04T11:48:14.550Z,27.60
2018-07-04T11:50:47.174Z,27.00
2018-07-04T12:00:17.200Z,26.70
2018-07-04T12:02:45.400Z,26.60
2018-07-04T12:08:14.784Z,26.40
2018-07-04T12:10:46.702Z,26.20
2018-07-04T12:13:28.995Z,26.60
2018-07-04T12:15:57.081Z,26.30
2018-07-04T12:18:27.050Z,26.50
2018-07-04T12:23:25.080Z,26.60
2018-07-04T12:25:53.268Z,26.70
2018-07-04T12:28:22.171Z,26.50
2018-07-04T12:35:49.579Z,26.30
2018-07-04T12:38:19.267Z,26.70
2018-07-04T12:40:49.345Z,26.10
2018-07-04T12:43:20.832Z,26.80
2018-07-04T12:45:51.559Z,27.60
2018-07-04T12:48:22.678Z,27.90
2018-07-04T12:51:05.766Z,28.20
2018-07-04T12:53:37.747Z,28.20
2018-07-04T12:56:10.860Z,28.30
2018-07-04T12:58:45.655Z,28.00
2018-07-04T13:01:22.043Z,27.70
2018-07-04T13:03:56.828Z,27.40
2018-07-04T13:06:30.275Z,28.20
2018-07-04T13:09:03.416Z,27.50
2018-07-04T13:11:38.493Z,27.80
2018-07-04T13:14:12.335Z,27.40
2018-07-04T13:16:46.949Z,27.60
2018-07-04T13:19:21.918Z,27.20
2018-07-04T13:21:55.437Z,27.40
2018-07-04T13:24:29.036Z,27.20
2018-07-04T13:27:02.153Z,27.60
2018-07-04T13:29:35.635Z,27.80
2018-07-04T13:32:09.070Z,27.60
2018-07-04T13:34:45.127Z,28.10
2018-07-04T13:37:19.907Z,27.30
2018-07-04T13:39:54.426Z,27.10
2018-07-04T13:42:27.741Z,26.30
2018-07-04T13:45:00.926Z,26.40
2018-07-04T13:47:34.222Z,27.30
2018-07-04T13:50:07.373Z,27.40
2018-07-04T13:52:46.400Z,27.00
2018-07-04T13:55:20.929Z,27.40
2018-07-04T13:57:54.731Z,27.20
2018-07-04T14:02:57.787Z,27.40
2018-07-04T14:05:31.138Z,27.90
2018-07-04T14:08:04.832Z,27.30
2018-07-04T14:10:38.971Z,28.10
2018-07-04T14:13:12.252Z,27.80
2018-07-04T14:15:50.496Z,28.30
2018-07-04T14:18:24.438Z,27.90
2018-07-04T14:20:58.212Z,28.20
2018-07-04T14:23:31.593Z,28.60
2018-07-04T14:28:32.338Z,29.10
2018-07-04T14:31:05.508Z,28.20
2018-07-04T14:33:39.398Z,28.30
2018-07-04T14:36:13.702Z,28.70
2018-07-04T14:38:48.108Z,28.00
2018-07-04T14:43:50.986Z,28.10
2018-07-04T14:46:24.958Z,28.70
2018-07-04T14:48:58.613Z,28.10
2018-07-04T14:51:31.977Z,28.60
2018-07-04T14:54:05.231Z,28.40
2018-07-04T14:56:38.349Z,27.90
2018-07-04T14:59:11.560Z,28.20
2018-07-04T15:01:46.473Z,28.60
2018-07-04T15:04:20.858Z,27.80
2018-07-04T15:06:58.202Z,28.50
2018-07-04T15:11:59.641Z,28.60
2018-07-04T15:14:32.791Z,28.90
2018-07-04T15:17:05.893Z,29.20
2018-07-04T15:19:38.969Z,28.90
2018-07-04T15:22:13.507Z,29.10
2018-07-04T15:24:48.192Z,29.30
2018-07-04T15:27:23.068Z,29.30
2018-07-04T15:29:56.879Z,29.90
2018-07-04T15:32:30.560Z,29.10
2018-07-04T15:35:03.695Z,29.60
2018-07-04T15:37:36.847Z,29.90
2018-07-04T15:40:10.059Z,30.20
2018-07-04T15:42:44.140Z,30.50
2018-07-04T15:45:19.895Z,30.60
2018-07-04T15:47:53.898Z,30.60
2018-07-04T15:50:27.979Z,30.50
2018-07-04T15:53:01.179Z,30.20
2018-07-04T15:55:34.911Z,30.80
2018-07-04T15:58:11.259Z,30.80
2018-07-04T16:00:59.068Z,30.30
2018-07-04T16:03:34.271Z,30.20
2018-07-04T16:06:07.389Z,31.00
2018-07-04T16:08:41.888Z,31.20
2018-07-04T16:11:15.163Z,31.50
2018-07-04T16:13:50.404Z,31.80
2018-07-04T16:16:28.521Z,31.80
2018-07-04T16:19:01.907Z,32.00
2018-07-04T16:21:38.650Z,32.50
2018-07-04T16:24:12.597Z,32.20
2018-07-04T16:26:45.701Z,31.60
2018-07-04T16:29:18.816Z,32.30
2018-07-04T16:31:51.982Z,32.70
2018-07-04T16:34:31.293Z,32.90
2018-07-04T16:37:05.137Z,32.80
2018-07-04T16:39:38.971Z,33.00
2018-07-04T16:42:12.351Z,33.00
2018-07-04T16:44:45.474Z,33.10
2018-07-04T16:47:18.818Z,33.20
2018-07-04T16:49:52.008Z,33.50
2018-07-04T16:52:25.886Z,33.50
2018-07-04T16:54:59.812Z,33.70
2018-07-04T16:57:33.936Z,33.60
2018-07-04T17:00:08.087Z,34.40
2018-07-04T17:02:41.997Z,34.60
2018-07-04T17:05:15.264Z,34.90
2018-07-04T17:07:48.497Z,34.80
2018-07-04T17:10:21.669Z,35.00
2018-07-04T17:12:56.748Z,34.90
2018-07-04T17:15:30.750Z,35.50
2018-07-04T17:18:05.325Z,35.80
2018-07-04T17:20:38.695Z,36.30
2018-07-04T17:23:12.104Z,36.80
2018-07-04T17:25:45.221Z,37.10
2018-07-04T17:28:19.935Z,37.40
2018-07-04T17:30:54.325Z,37.50
2018-07-04T17:33:29.831Z,38.30
2018-07-04T17:36:03.365Z,38.60
2018-07-04T17:38:36.850Z,38.70
2018-07-04T17:41:10.097Z,39.10
2018-07-04T17:43:43.465Z,39.80
2018-07-04T17:46:20.647Z,39.80
2018-07-04T17:48:54.701Z,40.20
2018-07-04T17:51:29.112Z,41.10
2018-07-04T17:54:02.910Z,41.30
2018-07-04T17:56:36.250Z,42.10
2018-07-04T17:59:09.758Z,42.80
2018-07-04T18:01:42.873Z,43.10
2018-07-04T18:04:16.071Z,43.30
2018-07-04T18:06:52.788Z,43.70
2018-07-04T18:09:26.302Z,44.30
2018-07-04T18:12:00.175Z,44.60
2018-07-04T18:14:33.498Z,44.70
2018-07-04T18:17:06.758Z,44.90
2018-07-04T18:19:39.992Z,45.50
2018-07-04T18:22:13.069Z,46.00
2018-07-04T18:24:46.227Z,46.30
2018-07-04T18:27:23.341Z,46.80
2018-07-04T18:29:56.655Z,47.10
2018-07-04T18:34:59.090Z,47.70
2018-07-04T18:37:32.437Z,48.20
2018-07-04T18:40:05.745Z,48.60
2018-07-04T18:42:39.314Z,48.80
2018-07-04T18:45:13.321Z,49.20
2018-07-04T18:47:46.477Z,49.60
2018-07-04T18:50:22.350Z,49.80
2018-07-04T18:52:58.157Z,50.20
2018-07-04T18:55:33.309Z,50.40
2018-07-04T18:58:06.721Z,50.70
2018-07-04T19:00:39.856Z,51.30
2018-07-04T19:03:13.135Z,51.50
2018-07-04T19:05:46.389Z,51.80
2018-07-04T19:08:26.588Z,51.90
2018-07-04T19:11:01.336Z,52.40
2018-07-04T19:13:34.634Z,52.60
2018-07-04T19:16:07.907Z,52.80
2018-07-04T19:18:41.321Z,53.00
2018-07-04T19:21:17.909Z,53.20
2018-07-04T19:23:53.204Z,54.40
2018-07-04T19:26:28.802Z,54.40
2018-07-04T19:29:03.389Z,54.30
2018-07-04T19:31:36.704Z,54.40
2018-07-04T19:34:09.981Z,55.00
2018-07-04T19:36:43.156Z,55.90
2018-07-04T19:39:24.604Z,56.40
2018-07-04T19:41:58.748Z,57.00
2018-07-04T19:44:31.958Z,57.40
2018-07-04T19:47:05.289Z,58.00
2018-07-04T19:49:38.451Z,58.60
2018-07-04T19:52:11.703Z,58.80
2018-07-04T19:54:44.829Z,59.60
2018-07-04T19:57:19.153Z,60.00
2018-07-04T19:59:54.238Z,60.50
2018-07-04T20:02:28.223Z,61.50
2018-07-04T20:05:01.618Z,62.10
2018-07-04T20:07:35.139Z,62.30
2018-07-04T20:10:08.376Z,62.30
2018-07-04T20:12:41.958Z,62.50
2018-07-04T20:15:15.104Z,62.00
2018-07-04T20:17:51.598Z,62.80
2018-07-04T20:20:25.659Z,63.10
2018-07-04T20:22:59.838Z,63.20
2018-07-04T20:25:33.016Z,63.70
2018-07-04T20:28:06.166Z,63.80
2018-07-04T20:30:39.391Z,64.60
2018-07-04T20:33:20.618Z,64.70
2018-07-04T20:35:56.226Z,65.20
2018-07-04T20:38:30.753Z,65.30
2018-07-04T20:41:04.175Z,65.20
2018-07-04T20:43:50.801Z,66.10
2018-07-04T20:46:25.951Z,66.30
2018-07-04T20:48:59.513Z,66.50
2018-07-04T20:51:32.728Z,67.00
2018-07-04T20:54:06.398Z,67.80
2018-07-04T20:56:41.883Z,67.90
2018-07-04T20:59:15.030Z,68.20
2018-07-04T21:01:48.219Z,68.50
2018-07-04T21:04:27.498Z,69.00
2018-07-04T21:07:01.603Z,69.20
2018-07-04T21:09:34.855Z,69.20
2018-07-04T21:12:08.068Z,69.30
2018-07-04T21:14:41.193Z,69.70
2018-07-04T21:17:14.340Z,70.00
2018-07-04T21:19:47.486Z,70.00
2018-07-04T21:22:20.803Z,70.00
2018-07-04T21:27:36.901Z,70.70
2018-07-04T21:30:10.074Z,71.20
2018-07-04T21:32:54.140Z,71.10
2018-07-04T21:35:27.509Z,70.60
2018-07-04T21:38:02.154Z,69.50
2018-07-04T21:40:35.439Z,69.20
2018-07-04T21:43:08.733Z,69.00
2018-07-04T21:45:53.139Z,68.70
2018-07-04T21:48:27.730Z,68.40
2018-07-04T21:51:01.472Z,68.40
2018-07-04T21:53:35.061Z,69.10
2018-07-04T21:56:08.266Z,69.30
2018-07-04T21:58:41.597Z,69.80
2018-07-04T22:01:15.284Z,70.30
2018-07-04T22:03:48.642Z,70.40
2018-07-04T22:06:21.737Z,70.40
2018-07-04T22:08:54.974Z,70.50
2018-07-04T22:11:28.098Z,71.00
2018-07-04T22:14:01.438Z,71.60
2018-07-04T22:16:35.494Z,72.10
2018-07-04T22:19:10.493Z,72.40
2018-07-04T22:21:44.766Z,72.30
2018-07-04T22:24:18.958Z,72.30
2018-07-04T22:26:52.354Z,72.70
2018-07-04T22:29:25.577Z,73.10
2018-07-04T22:31:58.910Z,73.30
2018-07-04T22:34:32.436Z,73.80
2018-07-04T22:37:11.740Z,73.90
2018-07-04T22:39:45.969Z,74.20
2018-07-04T22:42:19.415Z,74.30
2018-07-04T22:44:52.630Z,74.50
2018-07-04T22:47:25.818Z,74.80
2018-07-04T22:49:59.012Z,75.20
2018-07-04T22:52:32.831Z,75.40
2018-07-04T22:55:10.775Z,75.40
2018-07-04T22:57:45.301Z,75.80
2018-07-04T23:00:19.046Z,76.10
2018-07-04T23:02:52.436Z,76.10
2018-07-04T23:05:25.580Z,76.10
2018-07-04T23:07:58.761Z,76.40
2018-07-04T23:10:31.991Z,76.30
2018-07-04T23:13:07.669Z,76.20
2018-07-04T23:15:42.507Z,76.40
2018-07-04T23:18:16.204Z,76.50
2018-07-04T23:20:49.632Z,76.50
2018-07-04T23:23:22.930Z,76.40
2018-07-04T23:25:56.214Z,76.80
2018-07-04T23:28:29.654Z,77.10
2018-07-04T23:31:04.300Z,77.50
2018-07-04T23:33:39.042Z,77.80
2018-07-04T23:36:18.189Z,77.70
2018-07-04T23:38:51.514Z,77.90
2018-07-04T23:41:24.967Z,77.80
2018-07-04T23:43:58.310Z,77.90
2018-07-04T23:46:31.634Z,77.80
2018-07-04T23:49:08.166Z,77.90
2018-07-04T23:51:42.008Z,77.60
2018-07-04T23:54:16.050Z,77.40
2018-07-04T23:56:49.351Z,77.70
2018-07-04T23:59:22.793Z,77.80
